sensor_id;sensor_type;location;lat;lon;timestamp;P1;durP1;ratioP1;P2;durP2;ratioP2
16804;SDS011;8520;50.102;20.010;2022-09-06T00:00:44;4.30;;;3.90;;
16804;SDS011;8520;50.102;20.010;2022-09-06T00:03:32;3.90;;;3.60;;
16804;SDS011;8520;50.102;20.010;2022-09-06T00:06:21;4.50;;;4.10;;
16804;SDS011;8520;50.102;20.010;2022-09-06T00:09:10;4.00;;;3.80;;
16804;SDS011;8520;50.102;20.010;2022-09-06T00:11:58;7.87;;;3.87;;
16804;SDS011;8520;50.102;20.010;2022-09-06T00:14:47;4.07;;;3.77;;
16804;SDS011;8520;50.102;20.010;2022-09-06T00:17:35;4.40;;;4.10;;
16804;SDS011;8520;50.102;20.010;2022-09-06T00:20:24;4.20;;;3.90;;
16804;SDS011;8520;50.102;20.010;2022-09-06T00:23:13;4.20;;;3.90;;
16804;SDS011;8520;50.102;20.010;2022-09-06T00:26:03;4.13;;;3.93;;
16804;SDS011;8520;50.102;20.010;2022-09-06T00:28:52;3.80;;;3.50;;
16804;SDS011;8520;50.102;20.010;2022-09-06T00:31:40;3.80;;;3.60;;
16804;SDS011;8520;50.102;20.010;2022-09-06T00:34:28;4.53;;;4.23;;
16804;SDS011;8520;50.102;20.010;2022-09-06T00:37:17;4.23;;;4.00;;
16804;SDS011;8520;50.102;20.010;2022-09-06T00:40:05;4.33;;;3.90;;
16804;SDS011;8520;50.102;20.010;2022-09-06T00:42:56;4.20;;;3.90;;
16804;SDS011;8520;50.102;20.010;2022-09-06T00:45:45;4.50;;;4.03;;
16804;SDS011;8520;50.102;20.010;2022-09-06T00:48:33;4.63;;;4.00;;
16804;SDS011;8520;50.102;20.010;2022-09-06T00:51:24;4.57;;;4.17;;
16804;SDS011;8520;50.102;20.010;2022-09-06T00:54:15;4.87;;;4.47;;
16804;SDS011;8520;50.102;20.010;2022-09-06T00:57:03;4.60;;;4.30;;
16804;SDS011;8520;50.102;20.010;2022-09-06T00:59:54;4.07;;;3.77;;
16804;SDS011;8520;50.102;20.010;2022-09-06T01:02:43;4.00;;;3.80;;
16804;SDS011;8520;50.102;20.010;2022-09-06T01:05:33;4.47;;;4.00;;
16804;SDS011;8520;50.102;20.010;2022-09-06T01:08:38;4.50;;;4.10;;
16804;SDS011;8520;50.102;20.010;2022-09-06T01:11:44;4.10;;;3.80;;
16804;SDS011;8520;50.102;20.010;2022-09-06T01:14:43;3.93;;;3.63;;
16804;SDS011;8520;50.102;20.010;2022-09-06T01:17:46;4.00;;;3.70;;
16804;SDS011;8520;50.102;20.010;2022-09-06T01:20:47;4.17;;;3.87;;
16804;SDS011;8520;50.102;20.010;2022-09-06T01:23:54;4.20;;;3.80;;
16804;SDS011;8520;50.102;20.010;2022-09-06T01:30:28;3.90;;;3.60;;
16804;SDS011;8520;50.102;20.010;2022-09-06T01:33:21;4.53;;;4.03;;
16804;SDS011;8520;50.102;20.010;2022-09-06T01:36:17;4.13;;;3.80;;
16804;SDS011;8520;50.102;20.010;2022-09-06T01:39:14;4.00;;;3.60;;
16804;SDS011;8520;50.102;20.010;2022-09-06T01:42:14;3.97;;;3.67;;
16804;SDS011;8520;50.102;20.010;2022-09-06T01:45:07;4.20;;;3.90;;
16804;SDS011;8520;50.102;20.010;2022-09-06T01:47:59;4.13;;;3.83;;
16804;SDS011;8520;50.102;20.010;2022-09-06T01:50:57;4.50;;;3.33;;
16804;SDS011;8520;50.102;20.010;2022-09-06T01:54:01;4.17;;;3.87;;
16804;SDS011;8520;50.102;20.010;2022-09-06T01:57:07;3.97;;;3.67;;
16804;SDS011;8520;50.102;20.010;2022-09-06T02:00:03;4.43;;;4.00;;
16804;SDS011;8520;50.102;20.010;2022-09-06T02:03:04;4.40;;;4.10;;
16804;SDS011;8520;50.102;20.010;2022-09-06T02:05:56;4.03;;;3.73;;
16804;SDS011;8520;50.102;20.010;2022-09-06T02:08:50;4.10;;;3.80;;
16804;SDS011;8520;50.102;20.010;2022-09-06T02:11:44;4.00;;;3.70;;
16804;SDS011;8520;50.102;20.010;2022-09-06T02:14:38;4.00;;;3.70;;
16804;SDS011;8520;50.102;20.010;2022-09-06T02:17:30;3.77;;;3.47;;
16804;SDS011;8520;50.102;20.010;2022-09-06T02:20:23;5.03;;;3.93;;
16804;SDS011;8520;50.102;20.010;2022-09-06T02:23:13;4.00;;;3.70;;
16804;SDS011;8520;50.102;20.010;2022-09-06T02:26:04;4.30;;;3.90;;
16804;SDS011;8520;50.102;20.010;2022-09-06T02:28:56;4.30;;;4.00;;
16804;SDS011;8520;50.102;20.010;2022-09-06T02:31:46;4.00;;;3.70;;
16804;SDS011;8520;50.102;20.010;2022-09-06T02:34:40;4.00;;;3.70;;
16804;SDS011;8520;50.102;20.010;2022-09-06T02:37:33;4.03;;;3.63;;
16804;SDS011;8520;50.102;20.010;2022-09-06T02:40:21;3.87;;;3.57;;
16804;SDS011;8520;50.102;20.010;2022-09-06T02:43:11;4.23;;;3.60;;
16804;SDS011;8520;50.102;20.010;2022-09-06T02:45:59;3.80;;;3.50;;
16804;SDS011;8520;50.102;20.010;2022-09-06T02:48:47;3.90;;;3.53;;
16804;SDS011;8520;50.102;20.010;2022-09-06T02:51:36;5.77;;;4.10;;
16804;SDS011;8520;50.102;20.010;2022-09-06T02:54:26;4.13;;;3.73;;
16804;SDS011;8520;50.102;20.010;2022-09-06T02:57:14;4.60;;;4.20;;
16804;SDS011;8520;50.102;20.010;2022-09-06T03:00:03;4.40;;;4.10;;
16804;SDS011;8520;50.102;20.010;2022-09-06T03:02:52;3.80;;;3.60;;
16804;SDS011;8520;50.102;20.010;2022-09-06T03:05:41;4.40;;;3.93;;
16804;SDS011;8520;50.102;20.010;2022-09-06T03:08:33;4.23;;;3.67;;
16804;SDS011;8520;50.102;20.010;2022-09-06T03:11:23;4.20;;;3.90;;
16804;SDS011;8520;50.102;20.010;2022-09-06T03:14:11;4.07;;;3.77;;
16804;SDS011;8520;50.102;20.010;2022-09-06T03:17:02;4.23;;;3.83;;
16804;SDS011;8520;50.102;20.010;2022-09-06T03:19:51;3.70;;;3.40;;
16804;SDS011;8520;50.102;20.010;2022-09-06T03:22:39;4.20;;;3.90;;
16804;SDS011;8520;50.102;20.010;2022-09-06T03:25:27;4.83;;;4.33;;
16804;SDS011;8520;50.102;20.010;2022-09-06T03:28:17;4.80;;;4.33;;
16804;SDS011;8520;50.102;20.010;2022-09-06T03:31:06;4.70;;;4.30;;
16804;SDS011;8520;50.102;20.010;2022-09-06T03:33:55;4.13;;;3.83;;
16804;SDS011;8520;50.102;20.010;2022-09-06T03:36:43;4.53;;;4.23;;
16804;SDS011;8520;50.102;20.010;2022-09-06T03:39:31;3.77;;;3.50;;
16804;SDS011;8520;50.102;20.010;2022-09-06T03:42:20;4.20;;;3.87;;
16804;SDS011;8520;50.102;20.010;2022-09-06T03:45:10;4.10;;;3.70;;
16804;SDS011;8520;50.102;20.010;2022-09-06T03:47:58;3.80;;;3.60;;
16804;SDS011;8520;50.102;20.010;2022-09-06T03:50:46;4.07;;;3.60;;
16804;SDS011;8520;50.102;20.010;2022-09-06T03:53:36;4.70;;;4.40;;
16804;SDS011;8520;50.102;20.010;2022-09-06T03:56:24;4.57;;;3.77;;
16804;SDS011;8520;50.102;20.010;2022-09-06T03:59:13;5.70;;;3.80;;
16804;SDS011;8520;50.102;20.010;2022-09-06T04:02:02;4.17;;;3.87;;
16804;SDS011;8520;50.102;20.010;2022-09-06T04:04:52;4.70;;;4.37;;
16804;SDS011;8520;50.102;20.010;2022-09-06T04:07:41;3.80;;;3.50;;
16804;SDS011;8520;50.102;20.010;2022-09-06T04:10:30;4.00;;;3.70;;
16804;SDS011;8520;50.102;20.010;2022-09-06T04:13:18;4.63;;;4.20;;
16804;SDS011;8520;50.102;20.010;2022-09-06T04:16:06;4.20;;;3.90;;
16804;SDS011;8520;50.102;20.010;2022-09-06T04:18:56;4.47;;;4.07;;
16804;SDS011;8520;50.102;20.010;2022-09-06T04:21:46;8.17;;;4.40;;
16804;SDS011;8520;50.102;20.010;2022-09-06T04:24:35;4.33;;;4.03;;
16804;SDS011;8520;50.102;20.010;2022-09-06T04:27:23;4.17;;;3.70;;
16804;SDS011;8520;50.102;20.010;2022-09-06T04:30:11;5.20;;;3.87;;
16804;SDS011;8520;50.102;20.010;2022-09-06T04:33:00;4.97;;;4.57;;
16804;SDS011;8520;50.102;20.010;2022-09-06T04:35:49;5.33;;;4.83;;
16804;SDS011;8520;50.102;20.010;2022-09-06T04:38:39;11.50;;;4.80;;
16804;SDS011;8520;50.102;20.010;2022-09-06T04:41:29;10.17;;;4.70;;
16804;SDS011;8520;50.102;20.010;2022-09-06T04:44:17;10.30;;;5.00;;
16804;SDS011;8520;50.102;20.010;2022-09-06T04:47:06;10.20;;;4.47;;
16804;SDS011;8520;50.102;20.010;2022-09-06T04:49:58;12.20;;;4.90;;
16804;SDS011;8520;50.102;20.010;2022-09-06T04:52:48;19.47;;;5.70;;
16804;SDS011;8520;50.102;20.010;2022-09-06T04:55:36;6.03;;;4.50;;
16804;SDS011;8520;50.102;20.010;2022-09-06T04:58:25;5.80;;;4.73;;
16804;SDS011;8520;50.102;20.010;2022-09-06T05:01:13;5.90;;;5.30;;
16804;SDS011;8520;50.102;20.010;2022-09-06T05:04:02;8.10;;;6.13;;
16804;SDS011;8520;50.102;20.010;2022-09-06T05:06:58;6.20;;;4.57;;
16804;SDS011;8520;50.102;20.010;2022-09-06T05:09:48;13.50;;;5.20;;
16804;SDS011;8520;50.102;20.010;2022-09-06T05:12:36;11.73;;;4.97;;
16804;SDS011;8520;50.102;20.010;2022-09-06T05:15:30;8.97;;;4.50;;
16804;SDS011;8520;50.102;20.010;2022-09-06T05:18:19;7.80;;;5.20;;
16804;SDS011;8520;50.102;20.010;2022-09-06T05:21:07;13.70;;;5.67;;
16804;SDS011;8520;50.102;20.010;2022-09-06T05:23:56;11.77;;;6.83;;
16804;SDS011;8520;50.102;20.010;2022-09-06T05:26:46;11.80;;;7.87;;
16804;SDS011;8520;50.102;20.010;2022-09-06T05:29:34;10.90;;;6.83;;
16804;SDS011;8520;50.102;20.010;2022-09-06T05:32:22;20.20;;;8.00;;
16804;SDS011;8520;50.102;20.010;2022-09-06T05:35:11;8.83;;;6.50;;
16804;SDS011;8520;50.102;20.010;2022-09-06T05:37:59;6.60;;;5.67;;
16804;SDS011;8520;50.102;20.010;2022-09-06T05:40:47;7.87;;;6.10;;
16804;SDS011;8520;50.102;20.010;2022-09-06T05:43:37;18.20;;;6.27;;
16804;SDS011;8520;50.102;20.010;2022-09-06T05:46:26;8.17;;;5.43;;
16804;SDS011;8520;50.102;20.010;2022-09-06T05:49:14;30.77;;;7.90;;
16804;SDS011;8520;50.102;20.010;2022-09-06T05:52:02;17.93;;;7.20;;
16804;SDS011;8520;50.102;20.010;2022-09-06T05:54:51;20.10;;;7.53;;
16804;SDS011;8520;50.102;20.010;2022-09-06T05:57:39;11.67;;;7.17;;
16804;SDS011;8520;50.102;20.010;2022-09-06T06:00:29;14.27;;;5.80;;
16804;SDS011;8520;50.102;20.010;2022-09-06T06:03:17;9.27;;;5.90;;
16804;SDS011;8520;50.102;20.010;2022-09-06T06:06:06;15.30;;;6.13;;
16804;SDS011;8520;50.102;20.010;2022-09-06T06:08:54;22.50;;;6.73;;
16804;SDS011;8520;50.102;20.010;2022-09-06T06:11:43;12.10;;;6.20;;
16804;SDS011;8520;50.102;20.010;2022-09-06T06:14:31;8.97;;;5.77;;
16804;SDS011;8520;50.102;20.010;2022-09-06T06:17:21;12.17;;;7.40;;
16804;SDS011;8520;50.102;20.010;2022-09-06T06:20:09;17.60;;;6.00;;
16804;SDS011;8520;50.102;20.010;2022-09-06T06:22:57;16.03;;;5.67;;
16804;SDS011;8520;50.102;20.010;2022-09-06T06:25:46;13.87;;;5.50;;
16804;SDS011;8520;50.102;20.010;2022-09-06T06:28:34;9.60;;;5.43;;
16804;SDS011;8520;50.102;20.010;2022-09-06T06:31:23;6.13;;;5.07;;
16804;SDS011;8520;50.102;20.010;2022-09-06T06:34:13;12.13;;;5.93;;
16804;SDS011;8520;50.102;20.010;2022-09-06T06:37:02;12.83;;;6.53;;
16804;SDS011;8520;50.102;20.010;2022-09-06T06:39:50;6.30;;;5.03;;
16804;SDS011;8520;50.102;20.010;2022-09-06T06:42:38;11.15;;;6.45;;
16804;SDS011;8520;50.102;20.010;2022-09-06T06:45:27;18.08;;;6.85;;
16804;SDS011;8520;50.102;20.010;2022-09-06T06:48:15;5.25;;;4.72;;
16804;SDS011;8520;50.102;20.010;2022-09-06T06:51:05;9.80;;;5.35;;
16804;SDS011;8520;50.102;20.010;2022-09-06T06:53:54;7.00;;;4.65;;
16804;SDS011;8520;50.102;20.010;2022-09-06T06:56:43;13.77;;;5.70;;
16804;SDS011;8520;50.102;20.010;2022-09-06T06:59:31;16.77;;;5.32;;
16804;SDS011;8520;50.102;20.010;2022-09-06T07:02:20;11.18;;;5.57;;
16804;SDS011;8520;50.102;20.010;2022-09-06T07:05:08;5.60;;;5.07;;
16804;SDS011;8520;50.102;20.010;2022-09-06T07:08:18;6.07;;;4.90;;
16804;SDS011;8520;50.102;20.010;2022-09-06T07:11:07;6.60;;;5.25;;
16804;SDS011;8520;50.102;20.010;2022-09-06T07:13:56;5.55;;;4.80;;
16804;SDS011;8520;50.102;20.010;2022-09-06T07:16:45;9.95;;;5.30;;
16804;SDS011;8520;50.102;20.010;2022-09-06T07:19:33;12.60;;;5.65;;
16804;SDS011;8520;50.102;20.010;2022-09-06T07:22:41;10.65;;;5.80;;
16804;SDS011;8520;50.102;20.010;2022-09-06T07:25:31;9.43;;;5.72;;
16804;SDS011;8520;50.102;20.010;2022-09-06T07:28:20;11.55;;;5.80;;
16804;SDS011;8520;50.102;20.010;2022-09-06T07:31:09;5.55;;;4.35;;
16804;SDS011;8520;50.102;20.010;2022-09-06T07:34:17;5.60;;;5.10;;
16804;SDS011;8520;50.102;20.010;2022-09-06T07:37:06;5.82;;;5.15;;
16804;SDS011;8520;50.102;20.010;2022-09-06T07:39:55;6.80;;;4.38;;
16804;SDS011;8520;50.102;20.010;2022-09-06T07:42:44;7.10;;;5.60;;
16804;SDS011;8520;50.102;20.010;2022-09-06T07:45:33;8.30;;;5.43;;
16804;SDS011;8520;50.102;20.010;2022-09-06T07:48:21;8.18;;;4.95;;
16804;SDS011;8520;50.102;20.010;2022-09-06T07:51:10;5.43;;;4.53;;
16804;SDS011;8520;50.102;20.010;2022-09-06T07:54:00;6.80;;;5.68;;
16804;SDS011;8520;50.102;20.010;2022-09-06T07:57:08;16.58;;;6.72;;
16804;SDS011;8520;50.102;20.010;2022-09-06T07:59:59;8.55;;;5.05;;
16804;SDS011;8520;50.102;20.010;2022-09-06T08:02:57;7.93;;;5.95;;
16804;SDS011;8520;50.102;20.010;2022-09-06T08:05:47;7.28;;;4.70;;
16804;SDS011;8520;50.102;20.010;2022-09-06T08:08:56;4.78;;;4.22;;
16804;SDS011;8520;50.102;20.010;2022-09-06T08:11:45;6.95;;;4.75;;
16804;SDS011;8520;50.102;20.010;2022-09-06T08:14:34;8.55;;;4.75;;
16804;SDS011;8520;50.102;20.010;2022-09-06T08:17:24;9.45;;;5.43;;
16804;SDS011;8520;50.102;20.010;2022-09-06T08:20:12;4.15;;;3.72;;
16804;SDS011;8520;50.102;20.010;2022-09-06T08:23:01;5.80;;;4.65;;
16804;SDS011;8520;50.102;20.010;2022-09-06T08:25:56;5.03;;;4.57;;
16804;SDS011;8520;50.102;20.010;2022-09-06T08:28:45;4.85;;;4.43;;
16804;SDS011;8520;50.102;20.010;2022-09-06T08:31:34;4.50;;;4.13;;
16804;SDS011;8520;50.102;20.010;2022-09-06T08:34:25;7.80;;;4.63;;
16804;SDS011;8520;50.102;20.010;2022-09-06T08:37:13;7.97;;;4.78;;
16804;SDS011;8520;50.102;20.010;2022-09-06T08:40:02;6.40;;;4.50;;
16804;SDS011;8520;50.102;20.010;2022-09-06T08:42:50;6.10;;;4.90;;
16804;SDS011;8520;50.102;20.010;2022-09-06T08:45:39;5.85;;;4.13;;
16804;SDS011;8520;50.102;20.010;2022-09-06T08:48:29;9.70;;;5.05;;
16804;SDS011;8520;50.102;20.010;2022-09-06T08:54:43;6.45;;;4.80;;
16804;SDS011;8520;50.102;20.010;2022-09-06T08:57:44;5.95;;;4.10;;
16804;SDS011;8520;50.102;20.010;2022-09-06T09:00:47;6.18;;;3.90;;
16804;SDS011;8520;50.102;20.010;2022-09-06T09:03:39;6.10;;;3.92;;
16804;SDS011;8520;50.102;20.010;2022-09-06T09:06:30;5.13;;;4.20;;
16804;SDS011;8520;50.102;20.010;2022-09-06T09:09:20;4.50;;;4.10;;
16804;SDS011;8520;50.102;20.010;2022-09-06T09:12:09;8.60;;;3.75;;
16804;SDS011;8520;50.102;20.010;2022-09-06T09:15:04;5.80;;;3.88;;
16804;SDS011;8520;50.102;20.010;2022-09-06T09:17:56;8.52;;;4.07;;
16804;SDS011;8520;50.102;20.010;2022-09-06T09:20:44;5.13;;;4.63;;
16804;SDS011;8520;50.102;20.010;2022-09-06T09:23:33;5.75;;;4.28;;
16804;SDS011;8520;50.102;20.010;2022-09-06T09:26:23;8.15;;;3.70;;
16804;SDS011;8520;50.102;20.010;2022-09-06T09:29:13;8.70;;;4.18;;
16804;SDS011;8520;50.102;20.010;2022-09-06T09:32:03;9.48;;;3.38;;
16804;SDS011;8520;50.102;20.010;2022-09-06T09:34:51;5.68;;;3.08;;
16804;SDS011;8520;50.102;20.010;2022-09-06T09:37:40;3.30;;;3.10;;
16804;SDS011;8520;50.102;20.010;2022-09-06T09:40:33;5.63;;;4.07;;
16804;SDS011;8520;50.102;20.010;2022-09-06T09:43:27;6.30;;;3.13;;
16804;SDS011;8520;50.102;20.010;2022-09-06T09:46:26;6.15;;;3.50;;
16804;SDS011;8520;50.102;20.010;2022-09-06T09:49:26;9.07;;;3.10;;
16804;SDS011;8520;50.102;20.010;2022-09-06T09:52:16;6.00;;;3.40;;
16804;SDS011;8520;50.102;20.010;2022-09-06T09:55:11;5.72;;;3.35;;
16804;SDS011;8520;50.102;20.010;2022-09-06T09:57:59;4.35;;;3.35;;
16804;SDS011;8520;50.102;20.010;2022-09-06T10:00:49;3.47;;;3.17;;
16804;SDS011;8520;50.102;20.010;2022-09-06T10:04:04;6.10;;;3.78;;
16804;SDS011;8520;50.102;20.010;2022-09-06T10:07:15;6.15;;;3.30;;
16804;SDS011;8520;50.102;20.010;2022-09-06T10:10:07;6.65;;;3.45;;
16804;SDS011;8520;50.102;20.010;2022-09-06T10:13:06;3.97;;;3.30;;
16804;SDS011;8520;50.102;20.010;2022-09-06T10:16:00;3.80;;;3.50;;
16804;SDS011;8520;50.102;20.010;2022-09-06T10:18:49;4.18;;;3.72;;
16804;SDS011;8520;50.102;20.010;2022-09-06T10:21:38;4.78;;;3.63;;
16804;SDS011;8520;50.102;20.010;2022-09-06T10:24:28;5.70;;;3.90;;
16804;SDS011;8520;50.102;20.010;2022-09-06T10:27:25;11.27;;;4.63;;
16804;SDS011;8520;50.102;20.010;2022-09-06T10:30:14;8.35;;;3.17;;
16804;SDS011;8520;50.102;20.010;2022-09-06T10:33:06;12.95;;;3.97;;
16804;SDS011;8520;50.102;20.010;2022-09-06T10:36:03;14.68;;;4.97;;
16804;SDS011;8520;50.102;20.010;2022-09-06T10:38:53;11.43;;;3.50;;
16804;SDS011;8520;50.102;20.010;2022-09-06T10:41:53;4.20;;;3.17;;
16804;SDS011;8520;50.102;20.010;2022-09-06T10:44:53;9.45;;;3.83;;
16804;SDS011;8520;50.102;20.010;2022-09-06T10:47:59;5.63;;;4.22;;
16804;SDS011;8520;50.102;20.010;2022-09-06T10:50:53;3.65;;;3.45;;
16804;SDS011;8520;50.102;20.010;2022-09-06T10:53:45;4.80;;;3.60;;
16804;SDS011;8520;50.102;20.010;2022-09-06T10:56:39;4.72;;;4.05;;
16804;SDS011;8520;50.102;20.010;2022-09-06T10:59:31;6.13;;;5.43;;
16804;SDS011;8520;50.102;20.010;2022-09-06T11:02:29;7.40;;;2.30;;
16804;SDS011;8520;50.102;20.010;2022-09-06T11:05:27;6.47;;;2.55;;
16804;SDS011;8520;50.102;20.010;2022-09-06T11:08:26;4.32;;;1.95;;
16804;SDS011;8520;50.102;20.010;2022-09-06T11:11:39;6.07;;;3.00;;
16804;SDS011;8520;50.102;20.010;2022-09-06T11:14:31;2.20;;;1.75;;
16804;SDS011;8520;50.102;20.010;2022-09-06T11:17:24;6.18;;;3.17;;
16804;SDS011;8520;50.102;20.010;2022-09-06T11:20:21;3.25;;;2.30;;
16804;SDS011;8520;50.102;20.010;2022-09-06T11:26:35;5.30;;;3.20;;
16804;SDS011;8520;50.102;20.010;2022-09-06T11:29:30;3.53;;;2.20;;
16804;SDS011;8520;50.102;20.010;2022-09-06T11:32:27;6.40;;;3.00;;
16804;SDS011;8520;50.102;20.010;2022-09-06T11:35:22;8.90;;;2.97;;
16804;SDS011;8520;50.102;20.010;2022-09-06T11:38:18;4.45;;;2.70;;
16804;SDS011;8520;50.102;20.010;2022-09-06T11:41:13;5.18;;;3.38;;
16804;SDS011;8520;50.102;20.010;2022-09-06T11:44:04;7.18;;;4.63;;
16804;SDS011;8520;50.102;20.010;2022-09-06T11:46:57;4.88;;;2.40;;
16804;SDS011;8520;50.102;20.010;2022-09-06T11:49:49;2.97;;;2.60;;
16804;SDS011;8520;50.102;20.010;2022-09-06T11:56:14;11.05;;;4.05;;
16804;SDS011;8520;50.102;20.010;2022-09-06T11:59:19;4.68;;;3.20;;
16804;SDS011;8520;50.102;20.010;2022-09-06T12:02:29;8.38;;;3.60;;
16804;SDS011;8520;50.102;20.010;2022-09-06T12:05:25;5.30;;;3.28;;
16804;SDS011;8520;50.102;20.010;2022-09-06T12:08:26;3.85;;;3.47;;
16804;SDS011;8520;50.102;20.010;2022-09-06T12:11:27;5.85;;;3.47;;
16804;SDS011;8520;50.102;20.010;2022-09-06T12:14:30;8.00;;;3.75;;
16804;SDS011;8520;50.102;20.010;2022-09-06T12:17:21;9.30;;;4.10;;
16804;SDS011;8520;50.102;20.010;2022-09-06T12:20:11;10.07;;;4.10;;
16804;SDS011;8520;50.102;20.010;2022-09-06T12:23:40;7.72;;;4.10;;
16804;SDS011;8520;50.102;20.010;2022-09-06T12:26:44;10.85;;;4.32;;
16804;SDS011;8520;50.102;20.010;2022-09-06T12:29:47;9.68;;;4.13;;
16804;SDS011;8520;50.102;20.010;2022-09-06T12:32:41;7.05;;;5.10;;
16804;SDS011;8520;50.102;20.010;2022-09-06T12:35:32;4.15;;;3.75;;
16804;SDS011;8520;50.102;20.010;2022-09-06T12:38:52;4.13;;;3.72;;
16804;SDS011;8520;50.102;20.010;2022-09-06T12:41:42;4.68;;;4.28;;
16804;SDS011;8520;50.102;20.010;2022-09-06T12:44:36;6.55;;;4.55;;
16804;SDS011;8520;50.102;20.010;2022-09-06T12:47:26;4.75;;;3.53;;
16804;SDS011;8520;50.102;20.010;2022-09-06T12:50:19;4.47;;;4.13;;
16804;SDS011;8520;50.102;20.010;2022-09-06T12:53:17;6.82;;;4.68;;
16804;SDS011;8520;50.102;20.010;2022-09-06T12:56:10;4.35;;;3.88;;
16804;SDS011;8520;50.102;20.010;2022-09-06T13:02:14;4.50;;;4.20;;
16804;SDS011;8520;50.102;20.010;2022-09-06T13:05:07;5.30;;;4.90;;
16804;SDS011;8520;50.102;20.010;2022-09-06T13:07:59;5.18;;;4.07;;
16804;SDS011;8520;50.102;20.010;2022-09-06T13:10:50;6.40;;;4.25;;
16804;SDS011;8520;50.102;20.010;2022-09-06T13:13:43;4.63;;;4.20;;
16804;SDS011;8520;50.102;20.010;2022-09-06T13:16:36;5.20;;;4.22;;
16804;SDS011;8520;50.102;20.010;2022-09-06T13:19:30;6.68;;;4.28;;
16804;SDS011;8520;50.102;20.010;2022-09-06T13:22:36;5.50;;;4.10;;
16804;SDS011;8520;50.102;20.010;2022-09-06T13:25:26;5.60;;;4.53;;
16804;SDS011;8520;50.102;20.010;2022-09-06T13:28:25;3.92;;;3.63;;
16804;SDS011;8520;50.102;20.010;2022-09-06T13:31:18;9.32;;;4.68;;
16804;SDS011;8520;50.102;20.010;2022-09-06T13:34:09;7.55;;;3.90;;
16804;SDS011;8520;50.102;20.010;2022-09-06T13:36:58;7.57;;;3.70;;
16804;SDS011;8520;50.102;20.010;2022-09-06T13:39:49;3.80;;;3.60;;
16804;SDS011;8520;50.102;20.010;2022-09-06T13:42:38;4.43;;;4.13;;
16804;SDS011;8520;50.102;20.010;2022-09-06T13:45:27;4.05;;;3.75;;
16804;SDS011;8520;50.102;20.010;2022-09-06T13:48:16;4.30;;;3.90;;
16804;SDS011;8520;50.102;20.010;2022-09-06T13:51:16;9.07;;;4.85;;
16804;SDS011;8520;50.102;20.010;2022-09-06T13:54:06;21.73;;;5.63;;
16804;SDS011;8520;50.102;20.010;2022-09-06T13:56:56;12.77;;;5.05;;
16804;SDS011;8520;50.102;20.010;2022-09-06T13:59:44;6.57;;;4.38;;
16804;SDS011;8520;50.102;20.010;2022-09-06T14:02:33;4.13;;;3.53;;
16804;SDS011;8520;50.102;20.010;2022-09-06T14:05:21;10.43;;;9.38;;
16804;SDS011;8520;50.102;20.010;2022-09-06T14:08:11;6.50;;;4.03;;
16804;SDS011;8520;50.102;20.010;2022-09-06T14:10:59;5.03;;;4.10;;
16804;SDS011;8520;50.102;20.010;2022-09-06T14:13:48;15.70;;;5.00;;
16804;SDS011;8520;50.102;20.010;2022-09-06T14:16:36;17.98;;;5.53;;
16804;SDS011;8520;50.102;20.010;2022-09-06T14:19:25;9.50;;;5.03;;
16804;SDS011;8520;50.102;20.010;2022-09-06T14:22:13;6.30;;;4.03;;
16804;SDS011;8520;50.102;20.010;2022-09-06T14:25:03;13.63;;;4.63;;
16804;SDS011;8520;50.102;20.010;2022-09-06T14:27:53;10.25;;;5.10;;
16804;SDS011;8520;50.102;20.010;2022-09-06T14:30:41;10.65;;;5.07;;
16804;SDS011;8520;50.102;20.010;2022-09-06T14:33:29;4.88;;;4.47;;
16804;SDS011;8520;50.102;20.010;2022-09-06T14:36:19;8.20;;;4.50;;
16804;SDS011;8520;50.102;20.010;2022-09-06T14:39:08;8.30;;;4.85;;
16804;SDS011;8520;50.102;20.010;2022-09-06T14:41:58;6.30;;;4.70;;
16804;SDS011;8520;50.102;20.010;2022-09-06T14:44:46;11.93;;;5.10;;
16804;SDS011;8520;50.102;20.010;2022-09-06T14:47:35;5.47;;;4.95;;
16804;SDS011;8520;50.102;20.010;2022-09-06T14:50:23;9.43;;;5.82;;
16804;SDS011;8520;50.102;20.010;2022-09-06T14:53:11;32.92;;;10.50;;
16804;SDS011;8520;50.102;20.010;2022-09-06T14:56:21;9.82;;;4.63;;
16804;SDS011;8520;50.102;20.010;2022-09-06T14:59:11;12.98;;;4.75;;
16804;SDS011;8520;50.102;20.010;2022-09-06T15:02:00;14.32;;;5.28;;
16804;SDS011;8520;50.102;20.010;2022-09-06T15:04:48;13.60;;;5.00;;
16804;SDS011;8520;50.102;20.010;2022-09-06T15:07:37;7.88;;;3.72;;
16804;SDS011;8520;50.102;20.010;2022-09-06T15:10:26;13.93;;;5.05;;
16804;SDS011;8520;50.102;20.010;2022-09-06T15:13:14;5.82;;;4.40;;
16804;SDS011;8520;50.102;20.010;2022-09-06T15:16:04;7.63;;;4.32;;
16804;SDS011;8520;50.102;20.010;2022-09-06T15:18:53;5.65;;;4.68;;
16804;SDS011;8520;50.102;20.010;2022-09-06T15:21:42;7.85;;;4.32;;
16804;SDS011;8520;50.102;20.010;2022-09-06T15:24:30;7.43;;;5.75;;
16804;SDS011;8520;50.102;20.010;2022-09-06T15:27:19;5.65;;;5.15;;
16804;SDS011;8520;50.102;20.010;2022-09-06T15:30:08;8.38;;;5.30;;
16804;SDS011;8520;50.102;20.010;2022-09-06T15:32:58;5.60;;;5.10;;
16804;SDS011;8520;50.102;20.010;2022-09-06T15:35:52;5.97;;;4.70;;
16804;SDS011;8520;50.102;20.010;2022-09-06T15:38:41;4.90;;;4.40;;
16804;SDS011;8520;50.102;20.010;2022-09-06T15:41:33;4.63;;;4.30;;
16804;SDS011;8520;50.102;20.010;2022-09-06T15:44:24;8.65;;;5.57;;
16804;SDS011;8520;50.102;20.010;2022-09-06T15:47:13;6.10;;;4.20;;
16804;SDS011;8520;50.102;20.010;2022-09-06T15:50:03;7.38;;;4.88;;
16804;SDS011;8520;50.102;20.010;2022-09-06T15:52:52;5.22;;;4.07;;
16804;SDS011;8520;50.102;20.010;2022-09-06T15:55:41;5.10;;;4.47;;
16804;SDS011;8520;50.102;20.010;2022-09-06T15:58:45;5.88;;;4.78;;
16804;SDS011;8520;50.102;20.010;2022-09-06T16:01:33;11.20;;;5.03;;
16804;SDS011;8520;50.102;20.010;2022-09-06T16:04:22;6.60;;;4.30;;
16804;SDS011;8520;50.102;20.010;2022-09-06T16:07:12;7.25;;;4.63;;
16804;SDS011;8520;50.102;20.010;2022-09-06T16:10:00;9.55;;;4.65;;
16804;SDS011;8520;50.102;20.010;2022-09-06T16:12:50;5.20;;;4.22;;
16804;SDS011;8520;50.102;20.010;2022-09-06T16:15:38;5.40;;;3.75;;
16804;SDS011;8520;50.102;20.010;2022-09-06T16:18:27;8.43;;;4.53;;
16804;SDS011;8520;50.102;20.010;2022-09-06T16:21:18;6.35;;;4.20;;
16804;SDS011;8520;50.102;20.010;2022-09-06T16:24:12;5.63;;;4.15;;
16804;SDS011;8520;50.102;20.010;2022-09-06T16:27:01;5.22;;;4.65;;
16804;SDS011;8520;50.102;20.010;2022-09-06T16:29:49;7.40;;;4.70;;
16804;SDS011;8520;50.102;20.010;2022-09-06T16:32:38;12.18;;;4.78;;
16804;SDS011;8520;50.102;20.010;2022-09-06T16:35:26;6.38;;;4.43;;
16804;SDS011;8520;50.102;20.010;2022-09-06T16:38:15;13.07;;;4.40;;
16804;SDS011;8520;50.102;20.010;2022-09-06T16:41:09;11.15;;;4.20;;
16804;SDS011;8520;50.102;20.010;2022-09-06T16:44:00;4.90;;;4.20;;
16804;SDS011;8520;50.102;20.010;2022-09-06T16:46:49;13.30;;;4.25;;
16804;SDS011;8520;50.102;20.010;2022-09-06T16:49:39;10.75;;;4.78;;
16804;SDS011;8520;50.102;20.010;2022-09-06T16:52:27;7.20;;;4.43;;
16804;SDS011;8520;50.102;20.010;2022-09-06T16:55:16;4.28;;;3.75;;
16804;SDS011;8520;50.102;20.010;2022-09-06T16:58:05;11.82;;;5.05;;
16804;SDS011;8520;50.102;20.010;2022-09-06T17:00:54;7.80;;;4.75;;
16804;SDS011;8520;50.102;20.010;2022-09-06T17:03:42;8.23;;;4.25;;
16804;SDS011;8520;50.102;20.010;2022-09-06T17:06:31;5.95;;;4.95;;
16804;SDS011;8520;50.102;20.010;2022-09-06T17:09:24;12.65;;;5.60;;
16804;SDS011;8520;50.102;20.010;2022-09-06T17:12:12;10.75;;;5.35;;
16804;SDS011;8520;50.102;20.010;2022-09-06T17:15:05;10.52;;;5.22;;
16804;SDS011;8520;50.102;20.010;2022-09-06T17:17:54;12.80;;;5.97;;
16804;SDS011;8520;50.102;20.010;2022-09-06T17:20:46;6.78;;;5.63;;
16804;SDS011;8520;50.102;20.010;2022-09-06T17:23:41;7.43;;;5.70;;
16804;SDS011;8520;50.102;20.010;2022-09-06T17:26:30;6.20;;;5.28;;
16804;SDS011;8520;50.102;20.010;2022-09-06T17:29:19;9.13;;;5.25;;